createdAt,value
2023-01-10T00:00:13.217Z,956.61
2023-01-10T00:01:08.330Z,956.65
2023-01-10T00:02:03.386Z,956.67
2023-01-10T00:02:58.564Z,956.69
2023-01-10T00:03:53.624Z,956.69
2023-01-10T00:04:48.609Z,956.71
2023-01-10T00:05:43.677Z,956.67
2023-01-10T00:06:38.680Z,956.67
2023-01-10T00:07:33.758Z,956.69
2023-01-10T00:08:28.860Z,956.71
2023-01-10T00:09:23.837Z,956.69
2023-01-10T00:10:18.930Z,956.69
2023-01-10T00:11:14.116Z,956.69
2023-01-10T00:12:09.051Z,956.71
2023-01-10T00:13:04.159Z,956.69
2023-01-10T00:13:59.093Z,956.71
2023-01-10T00:14:54.140Z,956.71
2023-01-10T00:15:49.213Z,956.73
2023-01-10T00:16:44.203Z,956.71
2023-01-10T00:17:39.300Z,956.75
2023-01-10T00:18:34.378Z,956.79
2023-01-10T00:19:29.506Z,956.81
2023-01-10T00:20:24.572Z,956.79
2023-01-10T00:21:19.652Z,956.81
2023-01-10T00:22:14.634Z,956.83
2023-01-10T00:23:09.827Z,956.83
2023-01-10T00:24:04.735Z,956.85
2023-01-10T00:24:59.795Z,956.85
2023-01-10T00:25:54.883Z,956.85
2023-01-10T00:26:50.016Z,956.85
2023-01-10T00:27:44.997Z,956.83
2023-01-10T00:28:40.276Z,956.83
2023-01-10T00:29:35.437Z,956.83
2023-01-10T00:30:30.540Z,956.85
2023-01-10T00:31:25.775Z,956.85
2023-01-10T00:32:20.935Z,956.87
2023-01-10T00:33:16.928Z,956.83
2023-01-10T00:34:12.317Z,956.83
2023-01-10T00:35:08.036Z,956.85
2023-01-10T00:36:03.016Z,956.85
2023-01-10T00:36:58.585Z,956.85
2023-01-10T00:37:54.261Z,956.87
2023-01-10T00:38:49.536Z,956.91
2023-01-10T00:39:44.835Z,956.89
2023-01-10T00:40:41.037Z,956.91
2023-01-10T00:41:36.199Z,956.89
2023-01-10T00:42:32.017Z,956.89
2023-01-10T00:43:27.115Z,956.89
2023-01-10T00:44:22.297Z,956.87
2023-01-10T00:45:18.276Z,956.89
2023-01-10T00:46:13.379Z,956.89
2023-01-10T00:47:09.062Z,956.87
2023-01-10T00:48:04.214Z,956.85
2023-01-10T00:48:59.645Z,956.87
2023-01-10T00:49:55.502Z,956.89
2023-01-10T00:50:50.885Z,956.87
2023-01-10T00:51:45.752Z,956.93
2023-01-10T00:52:42.397Z,956.93
2023-01-10T00:53:37.701Z,956.95
2023-01-10T00:54:33.429Z,956.97
2023-01-10T00:55:28.577Z,956.95
2023-01-10T00:56:23.856Z,956.97
2023-01-10T00:57:19.711Z,956.95
2023-01-10T00:58:14.862Z,957.00
2023-01-10T00:59:10.994Z,956.97
2023-01-10T01:00:06.120Z,957.02
2023-01-10T01:01:01.348Z,957.04
2023-01-10T01:01:57.124Z,957.06
2023-01-10T01:02:52.322Z,957.08
2023-01-10T01:03:47.548Z,957.10
2023-01-10T01:04:43.978Z,957.12
2023-01-10T01:05:39.115Z,957.14
2023-01-10T01:06:35.022Z,957.18
2023-01-10T01:07:30.128Z,957.22
2023-01-10T01:08:25.601Z,957.22
2023-01-10T01:09:21.162Z,957.26
2023-01-10T01:10:16.437Z,957.30
2023-01-10T01:11:12.258Z,957.30
2023-01-10T01:12:07.459Z,957.36
2023-01-10T01:13:02.697Z,957.36
2023-01-10T01:13:58.668Z,957.38
2023-01-10T01:14:53.536Z,957.38
2023-01-10T01:15:48.793Z,957.38
2023-01-10T01:16:45.006Z,957.42
2023-01-10T01:17:40.350Z,957.40
2023-01-10T01:18:36.060Z,957.42
2023-01-10T01:19:31.348Z,957.46
2023-01-10T01:20:26.519Z,957.47
2023-01-10T01:21:22.469Z,957.51
2023-01-10T01:22:17.643Z,957.51
2023-01-10T01:23:13.463Z,957.51
2023-01-10T01:24:08.721Z,957.51
2023-01-10T01:25:03.941Z,957.53
2023-01-10T01:25:59.629Z,957.53
2023-01-10T01:26:54.800Z,957.57
2023-01-10T01:27:49.913Z,957.61
2023-01-10T01:28:46.334Z,957.65
2023-01-10T01:29:43.392Z,957.67
2023-01-10T01:30:37.308Z,957.71
2023-01-10T01:31:32.469Z,957.77
2023-01-10T01:32:27.754Z,957.79
2023-01-10T01:33:23.006Z,957.81
2023-01-10T01:34:18.353Z,957.79
2023-01-10T01:35:13.916Z,957.81
2023-01-10T01:36:09.118Z,957.81
2023-01-10T01:37:04.352Z,957.83
2023-01-10T01:38:00.730Z,957.87
2023-01-10T01:38:55.999Z,957.89
2023-01-10T01:39:51.695Z,957.91
2023-01-10T01:40:46.852Z,957.93
2023-01-10T01:41:42.011Z,957.93
2023-01-10T01:42:37.968Z,957.91
2023-01-10T01:43:33.276Z,957.89
2023-01-10T01:44:29.356Z,957.95
2023-01-10T01:45:24.538Z,957.97
2023-01-10T01:46:19.617Z,957.99
2023-01-10T01:47:15.386Z,958.01
2023-01-10T01:48:10.533Z,958.02
2023-01-10T01:49:05.937Z,958.06
2023-01-10T01:50:01.065Z,958.10
2023-01-10T01:50:56.312Z,958.10
2023-01-10T01:51:51.223Z,958.10
2023-01-10T01:52:46.363Z,958.10
2023-01-10T01:53:45.296Z,958.10
2023-01-10T01:54:40.332Z,958.16
2023-01-10T01:55:35.535Z,958.14
2023-01-10T01:56:30.710Z,958.16
2023-01-10T01:57:25.731Z,958.14
2023-01-10T01:58:20.760Z,958.20
2023-01-10T01:59:15.808Z,958.22
2023-01-10T02:00:10.950Z,958.20
2023-01-10T02:01:06.105Z,958.26
2023-01-10T02:02:01.159Z,958.30
2023-01-10T02:03:02.498Z,958.28
2023-01-10T02:03:52.488Z,958.32
2023-01-10T02:04:46.848Z,958.34
2023-01-10T02:05:42.139Z,958.38
2023-01-10T02:06:37.344Z,958.42
2023-01-10T02:07:32.617Z,958.44
2023-01-10T02:08:27.657Z,958.46
2023-01-10T02:09:22.690Z,958.49
2023-01-10T02:10:17.750Z,958.49
2023-01-10T02:11:12.933Z,958.51
2023-01-10T02:12:07.777Z,958.55
2023-01-10T02:13:02.925Z,958.55
2023-01-10T02:14:00.164Z,958.55
2023-01-10T02:14:55.179Z,958.59
2023-01-10T02:15:50.196Z,958.55
2023-01-10T02:16:45.224Z,958.57
2023-01-10T02:17:40.272Z,958.59
2023-01-10T02:18:35.382Z,958.57
2023-01-10T02:19:30.377Z,958.61
2023-01-10T02:20:25.471Z,958.61
2023-01-10T02:21:21.223Z,958.61
2023-01-10T02:22:15.636Z,958.61
2023-01-10T02:23:10.830Z,958.61
2023-01-10T02:24:05.992Z,958.63
2023-01-10T02:25:06.769Z,958.65
2023-01-10T02:26:01.970Z,958.63
2023-01-10T02:26:57.454Z,958.63
2023-01-10T02:27:52.875Z,958.61
2023-01-10T02:28:48.005Z,958.61
2023-01-10T02:29:43.266Z,958.61
2023-01-10T02:30:39.614Z,958.65
2023-01-10T02:31:34.826Z,958.69
2023-01-10T02:32:42.193Z,958.71
2023-01-10T02:33:26.632Z,958.69
2023-01-10T02:34:20.813Z,958.69
2023-01-10T02:35:17.279Z,958.71
2023-01-10T02:36:12.285Z,958.77
2023-01-10T02:37:08.219Z,958.77
2023-01-10T02:38:03.293Z,958.79
2023-01-10T02:38:58.602Z,958.81
2023-01-10T02:39:54.241Z,958.85
2023-01-10T02:40:49.503Z,958.81
2023-01-10T02:41:44.452Z,958.85
2023-01-10T02:42:40.929Z,958.85
2023-01-10T02:43:36.175Z,958.87
2023-01-10T02:44:31.972Z,958.89
2023-01-10T02:45:27.047Z,958.89
2023-01-10T02:46:22.312Z,958.89
2023-01-10T02:47:17.993Z,958.93
2023-01-10T02:48:13.370Z,958.91
2023-01-10T02:49:09.244Z,958.95
2023-01-10T02:50:04.344Z,958.95
2023-01-10T02:50:59.475Z,959.02
2023-01-10T02:51:55.315Z,959.06
2023-01-10T02:52:50.420Z,959.06
2023-01-10T02:53:45.808Z,959.08
2023-01-10T02:54:42.014Z,959.08
2023-01-10T02:55:37.236Z,959.10
2023-01-10T02:56:33.054Z,959.12
2023-01-10T02:57:28.292Z,959.14
2023-01-10T02:58:23.695Z,959.16
2023-01-10T02:59:19.321Z,959.12
2023-01-10T03:00:14.585Z,959.14
2023-01-10T03:01:10.332Z,959.18
2023-01-10T03:02:05.531Z,959.20
2023-01-10T03:03:00.960Z,959.20
2023-01-10T03:03:56.546Z,959.18
2023-01-10T03:04:51.920Z,959.24
2023-01-10T03:05:47.080Z,959.24
2023-01-10T03:06:43.613Z,959.28
2023-01-10T03:07:38.929Z,959.28
2023-01-10T03:08:34.754Z,959.32
2023-01-10T03:09:29.881Z,959.34
2023-01-10T03:10:25.079Z,959.32
2023-01-10T03:11:20.777Z,959.32
2023-01-10T03:12:15.981Z,959.34
2023-01-10T03:13:11.811Z,959.38
2023-01-10T03:14:06.935Z,959.38
2023-01-10T03:15:02.231Z,959.40
2023-01-10T03:15:58.130Z,959.40
2023-01-10T03:16:53.404Z,959.44
2023-01-10T03:17:48.553Z,959.46
2023-01-10T03:18:44.966Z,959.46
2023-01-10T03:19:40.254Z,959.50
2023-01-10T03:20:36.063Z,959.52
2023-01-10T03:21:31.351Z,959.52
2023-01-10T03:22:26.494Z,959.56
2023-01-10T03:23:22.569Z,959.59
2023-01-10T03:24:17.587Z,959.61
2023-01-10T03:25:12.972Z,959.63
2023-01-10T03:26:07.996Z,959.63
2023-01-10T03:27:03.850Z,959.65
2023-01-10T03:27:59.020Z,959.69
2023-01-10T03:28:54.198Z,959.73
2023-01-10T03:29:50.666Z,959.75
2023-01-10T03:30:45.900Z,959.77
2023-01-10T03:31:41.665Z,959.77
2023-01-10T03:32:36.797Z,959.81
2023-01-10T03:33:32.008Z,959.77
2023-01-10T03:34:27.831Z,959.79
2023-01-10T03:35:23.007Z,959.83
2023-01-10T03:36:18.889Z,959.81
2023-01-10T03:37:14.020Z,959.83
2023-01-10T03:38:09.371Z,959.87
2023-01-10T03:39:05.013Z,959.89
2023-01-10T03:40:00.167Z,959.91
2023-01-10T03:40:55.251Z,959.99
2023-01-10T03:43:20.072Z,959.99
2023-01-10T03:44:14.999Z,959.97
2023-01-10T03:45:08.612Z,959.99
2023-01-10T03:46:03.715Z,960.01
2023-01-10T03:46:58.808Z,960.03
2023-01-10T03:47:53.846Z,960.03
2023-01-10T03:48:49.024Z,960.06
2023-01-10T03:49:44.063Z,960.10
2023-01-10T03:50:39.245Z,960.10
2023-01-10T03:51:34.378Z,960.16
2023-01-10T03:52:29.480Z,960.14
2023-01-10T03:53:24.843Z,960.16
2023-01-10T03:54:20.121Z,960.18
2023-01-10T03:55:15.175Z,960.16
2023-01-10T03:56:10.292Z,960.14
2023-01-10T03:57:05.498Z,960.16
2023-01-10T03:58:00.718Z,960.16
2023-01-10T03:58:56.114Z,960.16
2023-01-10T03:59:51.531Z,960.18
2023-01-10T04:00:47.063Z,960.16
2023-01-10T04:01:42.162Z,960.18
2023-01-10T04:02:37.111Z,960.20
2023-01-10T04:03:32.633Z,960.20
2023-01-10T04:04:27.621Z,960.24
2023-01-10T04:05:22.832Z,960.24
2023-01-10T04:06:17.950Z,960.28
2023-01-10T04:07:13.063Z,960.30
2023-01-10T04:08:08.247Z,960.30
2023-01-10T04:09:03.588Z,960.28
2023-01-10T04:09:58.739Z,960.30
2023-01-10T04:10:54.255Z,960.32
2023-01-10T04:11:49.404Z,960.38
2023-01-10T04:12:44.604Z,960.38
2023-01-10T04:13:39.894Z,960.40
2023-01-10T04:14:35.254Z,960.40
2023-01-10T04:15:30.166Z,960.40
2023-01-10T04:16:25.533Z,960.44
2023-01-10T04:17:20.600Z,960.42
2023-01-10T04:18:15.793Z,960.44
2023-01-10T04:19:10.873Z,960.46
2023-01-10T04:20:06.129Z,960.46
2023-01-10T04:21:01.675Z,960.46
2023-01-10T04:21:56.995Z,960.46
2023-01-10T04:22:52.129Z,960.52
2023-01-10T04:23:47.451Z,960.52
2023-01-10T04:24:42.439Z,960.56
2023-01-10T04:25:37.811Z,960.61
2023-01-10T04:26:33.214Z,960.63
2023-01-10T04:27:28.084Z,960.63
2023-01-10T04:28:24.612Z,960.67
2023-01-10T04:29:18.413Z,960.67
2023-01-10T04:30:13.470Z,960.67
2023-01-10T04:31:08.796Z,960.69
2023-01-10T04:32:03.774Z,960.69
2023-01-10T04:32:59.029Z,960.69
2023-01-10T04:33:54.232Z,960.71
2023-01-10T04:34:49.238Z,960.73
2023-01-10T04:35:44.253Z,960.75
2023-01-10T04:36:39.622Z,960.77
2023-01-10T04:37:34.669Z,960.81
2023-01-10T04:38:29.902Z,960.81
2023-01-10T04:39:24.975Z,960.83
2023-01-10T04:40:20.168Z,960.87
2023-01-10T04:41:15.364Z,960.87
2023-01-10T04:42:10.356Z,960.91
2023-01-10T04:43:05.441Z,960.91
2023-01-10T04:44:01.390Z,960.97
2023-01-10T04:44:56.541Z,960.99
2023-01-10T04:45:51.939Z,961.01
2023-01-10T04:46:47.064Z,961.05
2023-01-10T04:47:42.310Z,961.03
2023-01-10T04:48:37.455Z,961.05
2023-01-10T04:49:32.559Z,961.06
2023-01-10T04:50:27.639Z,961.08
2023-01-10T04:51:22.767Z,961.08
2023-01-10T04:52:18.849Z,961.12
2023-01-10T04:53:13.730Z,961.10
2023-01-10T04:54:09.483Z,961.14
2023-01-10T04:55:04.849Z,961.16
2023-01-10T04:55:59.976Z,961.18
2023-01-10T04:56:55.787Z,961.22
2023-01-10T04:57:50.931Z,961.20
2023-01-10T04:58:46.133Z,961.18
2023-01-10T04:59:42.326Z,961.20
2023-01-10T05:00:38.058Z,961.22
2023-01-10T05:01:33.473Z,961.22
2023-01-10T05:02:28.794Z,961.26
2023-01-10T05:03:23.791Z,961.26
2023-01-10T05:04:20.850Z,961.28
2023-01-10T05:05:14.766Z,961.32
2023-01-10T05:06:10.573Z,961.36
2023-01-10T05:07:05.651Z,961.42
2023-01-10T05:08:00.770Z,961.40
2023-01-10T05:08:56.572Z,961.44
2023-01-10T05:09:51.858Z,961.50
2023-01-10T05:10:47.061Z,961.60
2023-01-10T05:11:43.429Z,961.62
2023-01-10T05:12:38.791Z,961.64
2023-01-10T05:13:34.462Z,961.64
2023-01-10T05:14:29.515Z,961.66
2023-01-10T05:15:25.039Z,961.67
2023-01-10T05:16:20.591Z,961.73
2023-01-10T05:17:15.729Z,961.77
2023-01-10T05:18:11.576Z,961.77
2023-01-10T05:19:06.657Z,961.79
2023-01-10T05:20:02.081Z,961.83
2023-01-10T05:20:57.872Z,961.89
2023-01-10T05:21:52.957Z,961.91
2023-01-10T05:22:48.060Z,961.91
2023-01-10T05:23:44.381Z,961.99
2023-01-10T05:24:39.637Z,961.99
2023-01-10T05:25:35.419Z,961.99
2023-01-10T05:26:30.623Z,962.07
2023-01-10T05:27:25.879Z,962.05
2023-01-10T05:28:21.568Z,962.11
2023-01-10T05:29:16.664Z,962.13
2023-01-10T05:30:12.489Z,962.14
2023-01-10T05:31:07.554Z,962.16
2023-01-10T05:32:02.927Z,962.09
2023-01-10T05:32:58.566Z,962.11
2023-01-10T05:33:53.694Z,962.09
2023-01-10T05:34:48.760Z,962.11
2023-01-10T05:35:45.103Z,962.09
2023-01-10T05:36:40.348Z,962.13
2023-01-10T05:37:37.838Z,962.13
2023-01-10T05:38:31.357Z,962.14
2023-01-10T05:39:26.505Z,962.16
2023-01-10T05:40:22.301Z,962.16
2023-01-10T05:41:17.563Z,962.16
2023-01-10T05:42:13.491Z,962.18
2023-01-10T05:43:08.592Z,962.22
2023-01-10T05:44:03.963Z,962.20
2023-01-10T05:45:00.101Z,962.22
2023-01-10T05:45:54.971Z,962.24
2023-01-10T05:46:50.224Z,962.28
2023-01-10T05:47:46.449Z,962.30
2023-01-10T05:48:41.712Z,962.28
2023-01-10T05:49:37.522Z,962.32
2023-01-10T05:50:33.004Z,962.38
2023-01-10T05:51:27.971Z,962.36
2023-01-10T05:52:23.081Z,962.38
2023-01-10T05:53:18.152Z,962.36
2023-01-10T05:54:14.823Z,962.38
2023-01-10T05:55:09.952Z,962.40
2023-01-10T05:56:05.773Z,962.44
2023-01-10T05:57:00.878Z,962.48
2023-01-10T05:57:56.040Z,962.48
2023-01-10T05:59:04.415Z,962.48
2023-01-10T05:59:48.050Z,962.52
2023-01-10T06:00:42.810Z,962.56
2023-01-10T06:01:37.933Z,962.62
2023-01-10T06:02:33.450Z,962.62
2023-01-10T06:03:29.076Z,962.66
2023-01-10T06:04:24.319Z,962.68
2023-01-10T06:05:19.635Z,962.68
2023-01-10T06:06:15.871Z,962.68
2023-01-10T06:07:11.058Z,962.71
2023-01-10T06:08:06.835Z,962.73
2023-01-10T06:09:02.054Z,962.75
2023-01-10T06:09:57.320Z,962.75
2023-01-10T06:10:52.328Z,962.79
2023-01-10T06:11:47.570Z,962.79
2023-01-10T06:12:42.837Z,962.79
2023-01-10T06:13:37.919Z,962.79
2023-01-10T06:14:33.092Z,962.83
2023-01-10T06:15:29.014Z,962.81
2023-01-10T06:16:24.172Z,962.85
2023-01-10T06:17:19.304Z,962.91
2023-01-10T06:18:14.542Z,962.99
2023-01-10T06:19:09.640Z,962.95
2023-01-10T06:20:04.752Z,963.03
2023-01-10T06:20:59.986Z,963.05
2023-01-10T06:21:54.972Z,963.05
2023-01-10T06:22:49.963Z,963.11
2023-01-10T06:23:45.069Z,963.11
2023-01-10T06:24:40.053Z,963.13
2023-01-10T06:25:35.276Z,963.11
2023-01-10T06:26:30.259Z,963.09
2023-01-10T06:27:25.569Z,963.11
2023-01-10T06:28:20.551Z,963.16
2023-01-10T06:29:15.669Z,963.18
2023-01-10T06:30:10.802Z,963.20
2023-01-10T06:31:05.759Z,963.22
2023-01-10T06:32:00.742Z,963.18
2023-01-10T06:32:55.740Z,963.26
2023-01-10T06:33:50.832Z,963.28
2023-01-10T06:34:45.888Z,963.28
2023-01-10T06:35:40.875Z,963.24
2023-01-10T06:36:35.859Z,963.30
2023-01-10T06:37:30.871Z,963.30
2023-01-10T06:38:25.972Z,963.30
2023-01-10T06:39:20.945Z,963.28
2023-01-10T06:40:16.113Z,963.28
2023-01-10T06:41:11.092Z,963.28
2023-01-10T06:42:07.098Z,963.32
2023-01-10T06:43:02.341Z,963.34
2023-01-10T06:43:57.552Z,963.34
2023-01-10T06:44:53.789Z,963.38
2023-01-10T06:45:49.147Z,963.38
2023-01-10T06:46:45.136Z,963.42
2023-01-10T06:47:40.123Z,963.46
2023-01-10T06:48:35.464Z,963.48
2023-01-10T06:49:31.099Z,963.50
2023-01-10T06:50:26.276Z,963.56
2023-01-10T06:51:22.063Z,963.58
2023-01-10T06:52:17.435Z,963.60
2023-01-10T06:53:12.764Z,963.62
2023-01-10T06:54:08.468Z,963.66
2023-01-10T06:55:03.661Z,963.66
2023-01-10T06:55:58.819Z,963.66
2023-01-10T06:56:55.346Z,963.71
2023-01-10T06:57:50.700Z,963.70
2023-01-10T06:58:46.337Z,963.71
2023-01-10T06:59:41.475Z,963.73
2023-01-10T07:00:36.697Z,963.73
2023-01-10T07:01:32.721Z,963.73
2023-01-10T07:02:27.824Z,963.77
2023-01-10T07:03:23.936Z,963.81
2023-01-10T07:04:18.879Z,963.81
2023-01-10T07:05:14.199Z,963.87
2023-01-10T07:06:10.089Z,963.89
2023-01-10T07:07:05.349Z,963.93
2023-01-10T07:08:00.581Z,963.97
2023-01-10T07:08:56.903Z,964.01
2023-01-10T07:09:52.121Z,964.05
2023-01-10T07:10:48.039Z,964.03
2023-01-10T07:11:43.231Z,964.07
2023-01-10T07:12:38.450Z,964.07
2023-01-10T07:13:34.162Z,964.07
2023-01-10T07:14:29.398Z,964.07
2023-01-10T07:15:25.316Z,964.19
2023-01-10T07:16:20.574Z,964.21
2023-01-10T07:17:15.665Z,964.21
2023-01-10T07:18:12.833Z,964.23
2023-01-10T07:19:06.880Z,964.19
2023-01-10T07:20:02.435Z,964.23
2023-01-10T07:20:58.436Z,964.27
2023-01-10T07:21:53.785Z,964.29
2023-01-10T07:22:49.593Z,964.29
2023-01-10T07:23:44.999Z,964.31
2023-01-10T07:24:40.418Z,964.31
2023-01-10T07:25:36.133Z,964.32
2023-01-10T07:26:31.495Z,964.32
2023-01-10T07:27:27.344Z,964.38
2023-01-10T07:28:22.462Z,964.38
2023-01-10T07:29:18.070Z,964.38
2023-01-10T07:30:13.701Z,964.42
2023-01-10T07:31:09.078Z,964.42
2023-01-10T07:32:04.481Z,964.42
2023-01-10T07:33:01.327Z,964.44
2023-01-10T07:33:56.060Z,964.44
2023-01-10T07:34:51.890Z,964.50
2023-01-10T07:35:47.149Z,964.50
2023-01-10T07:36:42.448Z,964.56
2023-01-10T07:37:38.363Z,964.56
2023-01-10T07:38:33.529Z,964.58
2023-01-10T07:39:29.342Z,964.58
2023-01-10T07:40:24.740Z,964.58
2023-01-10T07:41:19.923Z,964.56
2023-01-10T07:42:15.294Z,964.56
2023-01-10T07:43:10.424Z,964.58
2023-01-10T07:44:07.065Z,964.62
2023-01-10T07:45:02.437Z,964.64
2023-01-10T07:45:58.211Z,964.64
2023-01-10T07:46:53.424Z,964.68
2023-01-10T07:47:49.059Z,964.66
2023-01-10T07:48:44.806Z,964.68
2023-01-10T07:49:40.093Z,964.68
2023-01-10T07:50:35.832Z,964.70
2023-01-10T07:51:31.211Z,964.74
2023-01-10T07:52:26.644Z,964.76
2023-01-10T07:53:22.292Z,964.78
2023-01-10T07:54:17.579Z,964.78
2023-01-10T07:55:12.906Z,964.83
2023-01-10T07:56:09.293Z,964.81
2023-01-10T07:57:04.734Z,964.83
2023-01-10T07:58:00.331Z,964.83
2023-01-10T07:58:55.627Z,964.89
2023-01-10T07:59:50.997Z,964.95
2023-01-10T08:02:11.991Z,964.99
2023-01-10T08:03:07.336Z,965.01
2023-01-10T08:04:02.432Z,965.03
2023-01-10T08:04:57.743Z,965.03
2023-01-10T08:05:53.017Z,965.05
2023-01-10T08:06:48.324Z,965.05
2023-01-10T08:07:43.646Z,965.09
2023-01-10T08:08:38.970Z,965.09
2023-01-10T08:09:34.304Z,965.07
2023-01-10T08:10:29.635Z,965.09
2023-01-10T08:11:24.930Z,965.03
2023-01-10T08:12:20.369Z,965.05
2023-01-10T08:13:19.392Z,965.07
2023-01-10T08:14:10.946Z,965.05
2023-01-10T08:15:06.293Z,965.05
2023-01-10T08:16:01.668Z,965.07
2023-01-10T08:16:57.044Z,965.05
2023-01-10T08:17:52.419Z,965.05
2023-01-10T08:18:47.786Z,965.05
2023-01-10T08:19:43.480Z,965.07
2023-01-10T08:20:38.482Z,965.11
2023-01-10T08:21:33.835Z,965.13
2023-01-10T08:22:29.336Z,965.19
2023-01-10T08:23:25.072Z,965.23
2023-01-10T08:24:20.048Z,965.26
2023-01-10T08:25:15.416Z,965.26
2023-01-10T08:26:10.801Z,965.30
2023-01-10T08:27:06.175Z,965.34
2023-01-10T08:28:01.585Z,965.34
2023-01-10T08:28:56.975Z,965.42
2023-01-10T08:29:52.339Z,965.46
2023-01-10T08:30:50.332Z,965.48
2023-01-10T08:31:43.155Z,965.46
2023-01-10T08:32:38.682Z,965.50
2023-01-10T08:33:33.949Z,965.52
2023-01-10T08:34:30.317Z,965.52
2023-01-10T08:35:24.790Z,965.52
2023-01-10T08:36:20.140Z,965.54
2023-01-10T08:37:15.509Z,965.56
2023-01-10T08:38:10.887Z,965.58
2023-01-10T08:39:06.470Z,965.60
2023-01-10T08:40:01.686Z,965.64
2023-01-10T08:40:57.192Z,965.60
2023-01-10T08:41:52.380Z,965.58
2023-01-10T08:42:47.877Z,965.60
2023-01-10T08:43:43.143Z,965.60
2023-01-10T08:44:38.558Z,965.64
2023-01-10T08:45:33.944Z,965.66
2023-01-10T08:46:29.365Z,965.70
2023-01-10T08:47:24.677Z,965.72
2023-01-10T08:48:20.118Z,965.72
2023-01-10T08:49:15.457Z,965.74
2023-01-10T08:50:10.841Z,965.77
2023-01-10T08:51:06.258Z,965.74
2023-01-10T08:52:01.655Z,965.72
2023-01-10T08:52:57.165Z,965.74
2023-01-10T08:53:52.476Z,965.74
2023-01-10T08:54:47.858Z,965.74
2023-01-10T08:55:43.235Z,965.76
2023-01-10T08:56:38.595Z,965.79
2023-01-10T08:57:34.023Z,965.83
2023-01-10T08:58:29.641Z,965.83
2023-01-10T08:59:24.760Z,965.81
2023-01-10T09:00:20.144Z,965.83
2023-01-10T09:01:15.593Z,965.81
2023-01-10T09:02:10.871Z,965.91
2023-01-10T09:03:06.395Z,965.93
2023-01-10T09:04:01.586Z,965.93
2023-01-10T09:04:56.826Z,965.99
2023-01-10T09:05:52.025Z,965.99
2023-01-10T09:06:47.470Z,966.07
2023-01-10T09:07:42.592Z,966.07
2023-01-10T09:08:38.054Z,966.09
2023-01-10T09:09:33.169Z,966.09
2023-01-10T09:10:28.549Z,966.05
2023-01-10T09:11:23.937Z,966.01
2023-01-10T09:12:19.416Z,965.93
2023-01-10T09:13:14.814Z,965.93
2023-01-10T09:14:10.088Z,965.89
2023-01-10T09:15:05.433Z,965.89
2023-01-10T09:16:00.873Z,965.89
2023-01-10T09:16:56.147Z,965.93
2023-01-10T09:17:51.471Z,965.99
2023-01-10T09:18:46.840Z,966.03
2023-01-10T09:19:42.255Z,966.07
2023-01-10T09:20:37.601Z,966.07
2023-01-10T09:21:32.992Z,966.03
2023-01-10T09:22:28.328Z,966.01
2023-01-10T09:23:23.947Z,966.01
2023-01-10T09:24:19.183Z,966.03
2023-01-10T09:25:14.601Z,965.97
2023-01-10T09:26:09.901Z,966.03
2023-01-10T09:27:05.310Z,965.99
2023-01-10T09:28:00.655Z,966.01
2023-01-10T09:28:56.057Z,966.01
2023-01-10T09:29:51.537Z,966.01
2023-01-10T09:30:46.746Z,966.01
2023-01-10T09:31:42.175Z,966.05
2023-01-10T09:32:37.607Z,966.07
2023-01-10T09:33:45.842Z,966.13
2023-01-10T09:34:29.405Z,966.19
2023-01-10T09:35:23.757Z,966.17
2023-01-10T09:36:19.188Z,966.19
2023-01-10T09:37:14.656Z,966.23
2023-01-10T09:38:09.887Z,966.25
2023-01-10T09:39:05.237Z,966.28
2023-01-10T09:40:00.796Z,966.30
2023-01-10T09:40:56.001Z,966.30
2023-01-10T09:41:51.364Z,966.30
2023-01-10T09:42:46.736Z,966.32
2023-01-10T09:43:42.338Z,966.34
2023-01-10T09:44:37.458Z,966.40
2023-01-10T09:45:32.895Z,966.48
2023-01-10T09:46:28.181Z,966.48
2023-01-10T09:47:23.490Z,966.54
2023-01-10T09:48:18.781Z,966.56
2023-01-10T09:49:14.186Z,966.56
2023-01-10T09:50:09.537Z,966.60
2023-01-10T09:51:04.884Z,966.56
2023-01-10T09:52:00.329Z,966.58
2023-01-10T09:52:55.815Z,966.60
2023-01-10T09:53:53.594Z,966.62
2023-01-10T09:54:46.486Z,966.62
2023-01-10T09:55:41.817Z,966.64
2023-01-10T09:56:37.033Z,966.62
2023-01-10T09:57:32.364Z,966.62
2023-01-10T09:58:27.691Z,966.62
2023-01-10T09:59:23.084Z,966.64
2023-01-10T10:00:18.451Z,966.66
2023-01-10T10:01:13.848Z,966.78
2023-01-10T10:02:09.256Z,966.78
2023-01-10T10:03:04.706Z,966.78
2023-01-10T10:04:00.130Z,966.78
2023-01-10T10:04:55.264Z,966.74
2023-01-10T10:05:52.695Z,966.76
2023-01-10T10:06:49.302Z,966.80
2023-01-10T10:07:41.439Z,966.78
2023-01-10T10:08:37.120Z,966.80
2023-01-10T10:09:32.356Z,966.76
2023-01-10T10:10:27.743Z,966.76
2023-01-10T10:11:23.123Z,966.80
2023-01-10T10:12:18.518Z,966.80
2023-01-10T10:13:19.858Z,966.84
2023-01-10T10:14:10.312Z,966.82
2023-01-10T10:15:04.717Z,966.78
2023-01-10T10:16:00.352Z,966.76
2023-01-10T10:16:55.370Z,966.76
2023-01-10T10:17:50.857Z,966.74
2023-01-10T10:18:46.201Z,966.74
2023-01-10T10:19:41.525Z,966.78
2023-01-10T10:20:36.855Z,966.78
2023-01-10T10:21:32.357Z,966.74
2023-01-10T10:22:27.592Z,966.78
2023-01-10T10:23:22.977Z,966.66
2023-01-10T10:24:18.533Z,966.78
2023-01-10T10:25:13.709Z,966.74
2023-01-10T10:26:09.077Z,966.74
2023-01-10T10:27:04.466Z,966.66
2023-01-10T10:27:59.875Z,966.76
2023-01-10T10:28:55.566Z,966.66
2023-01-10T10:29:50.662Z,966.60
2023-01-10T10:30:46.039Z,966.62
2023-01-10T10:31:41.456Z,966.62
2023-01-10T10:32:36.839Z,966.60
2023-01-10T10:33:32.174Z,966.56
2023-01-10T10:34:27.593Z,966.56
2023-01-10T10:35:22.940Z,966.50
2023-01-10T10:36:18.331Z,966.52
2023-01-10T10:37:13.719Z,966.50
2023-01-10T10:38:09.111Z,966.48
2023-01-10T10:39:04.656Z,966.46
2023-01-10T10:39:59.934Z,966.54
2023-01-10T10:40:55.459Z,966.52
2023-01-10T10:41:50.802Z,966.54
2023-01-10T10:42:46.246Z,966.50
2023-01-10T10:43:41.740Z,966.50
2023-01-10T10:44:37.167Z,966.52
2023-01-10T10:45:32.691Z,966.46
2023-01-10T10:46:28.086Z,966.50
2023-01-10T10:47:23.384Z,966.50
2023-01-10T10:48:18.795Z,966.52
2023-01-10T10:49:15.446Z,966.48
2023-01-10T10:50:09.670Z,966.48
2023-01-10T10:51:05.111Z,966.50
2023-01-10T10:52:00.614Z,966.50
2023-01-10T10:52:56.045Z,966.46
2023-01-10T10:53:51.630Z,966.48
2023-01-10T10:54:47.833Z,966.48
2023-01-10T10:55:42.376Z,966.48
2023-01-10T10:56:37.761Z,966.52
2023-01-10T10:57:33.158Z,966.52
2023-01-10T10:58:28.673Z,966.52
2023-01-10T10:59:24.066Z,966.54
2023-01-10T11:00:19.329Z,966.50
2023-01-10T11:01:14.768Z,966.54
2023-01-10T11:02:10.136Z,966.54
2023-01-10T11:03:05.411Z,966.60
2023-01-10T11:04:00.780Z,966.60
2023-01-10T11:04:56.143Z,966.62
2023-01-10T11:05:51.553Z,966.58
2023-01-10T11:06:46.924Z,966.64
2023-01-10T11:07:42.344Z,966.64
2023-01-10T11:08:37.736Z,966.62
2023-01-10T11:09:33.285Z,966.60
2023-01-10T11:10:28.580Z,966.60
2023-01-10T11:11:23.955Z,966.58
2023-01-10T11:12:19.362Z,966.62
2023-01-10T11:13:14.774Z,966.60
2023-01-10T11:14:10.126Z,966.54
2023-01-10T11:15:05.561Z,966.62
2023-01-10T11:16:01.038Z,966.56
2023-01-10T11:16:56.286Z,966.52
2023-01-10T11:17:51.657Z,966.52
2023-01-10T11:18:47.054Z,966.52
2023-01-10T11:19:42.589Z,966.52
2023-01-10T11:20:37.891Z,966.56
2023-01-10T11:21:33.249Z,966.52
2023-01-10T11:22:28.760Z,966.52
2023-01-10T11:23:24.020Z,966.50
2023-01-10T11:24:19.451Z,966.48
2023-01-10T11:25:14.855Z,966.46
2023-01-10T11:26:10.263Z,966.50
2023-01-10T11:27:05.640Z,966.50
2023-01-10T11:28:01.048Z,966.48
2023-01-10T11:28:56.403Z,966.48
2023-01-10T11:29:51.934Z,966.48
2023-01-10T11:30:47.177Z,966.48
2023-01-10T11:31:42.606Z,966.52
2023-01-10T11:32:37.855Z,966.52
2023-01-10T11:33:33.260Z,966.52